Élőkép

Információk

Albatrosz Repülő Egyesület
8000 Székesfehérvár,
Radványi utca 6.

Adószám:
19092908-2-07

Bankszámla szám:
Budapest Bank
10102952-01361819-00000001

Telefon: +36 30 9598-897

Telephey: Börgönd repülőtér

Börgöndi repülõtér

LHBP METAR/TAF

[source: ADDS]
METAR
TAF LHBP 270500Z 2706/2806 30017G27KT CAVOK TEMPO 2706/2711 34021G33KT BECMG 2713/2715 33011KT BECMG 2717/2719 32005KT BECMG 2722/2724 VRB03KT TAF
TAF LHBP 270500Z 2706/2806 30017G27KT CAVOK TEMPO 2706/2711 34021G33KT BECMG 2713/2715 33011KT BECMG 2717/2719 32005KT BECMG 2722/2724 VRB03KT =
SR / SS: 03:00 / 18:30 UTC (Börgönd 2015-05-27)
Hungarian Chinese (Simplified) Croatian Czech English Finnish French German Hebrew Italian Japanese Polish Portuguese Romanian Russian Serbian Slovak Slovenian Spanish

Belépés tagoknak